Time;durP1;ratioP1;P1;durP2;ratioP2;P2;SDS_P1;SDS_P2;PMS_P1;PMS_P2;Temp;Humidity;BMP_temperature;BMP_pressure;BME280_temperature;BME280_humidity;BME280_pressure;Samples;Min_cycle;Max_cycle;Signal;HPM_P1;HPM_P2
2023/08/22 00:00:28;;;;;;;14.48;13.00;;;26.70;58.80;;;;;;5047861;27;114508;-78
2023/08/22 00:02:55;;;;;;;12.80;11.65;;;26.70;59.00;;;;;;5045743;27;115271;-79
2023/08/22 00:05:22;;;;;;;14.45;13.05;;;26.70;58.70;;;;;;5012256;27;117604;-79
2023/08/22 00:07:50;;;;;;;11.52;10.52;;;26.70;59.10;;;;;;5029757;27;114470;-78
2023/08/22 00:10:17;;;;;;;12.43;11.32;;;26.60;58.80;;;;;;5046416;27;114325;-78
2023/08/22 00:12:44;;;;;;;12.75;11.55;;;26.70;59.00;;;;;;5046165;27;115652;-79
2023/08/22 00:15:12;;;;;;;12.98;11.77;;;26.60;58.70;;;;;;5047156;27;114932;-78
2023/08/22 00:17:40;;;;;;;16.20;14.52;;;26.60;58.90;;;;;;5046403;27;114257;-79
2023/08/22 00:20:08;;;;;;;11.77;10.68;;;26.60;59.20;;;;;;5047394;27;114253;-78
2023/08/22 00:22:35;;;;;;;13.43;12.05;;;26.60;58.90;;;;;;5044991;27;115124;-78
2023/08/22 00:25:04;;;;;;;12.88;11.68;;;26.50;59.20;;;;;;5046177;27;114605;-78
2023/08/22 00:27:31;;;;;;;11.65;10.55;;;26.50;59.10;;;;;;5030816;27;114054;-78
2023/08/22 00:29:58;;;;;;;12.57;11.35;;;26.50;58.90;;;;;;5048254;27;114358;-78
2023/08/22 00:32:25;;;;;;;13.75;12.50;;;26.50;58.90;;;;;;5048723;27;115213;-78
2023/08/22 00:34:52;;;;;;;13.38;12.23;;;26.50;59.20;;;;;;5047423;27;114701;-78
2023/08/22 00:37:19;;;;;;;12.48;11.38;;;26.40;59.40;;;;;;5046075;27;114287;-78
2023/08/22 00:39:47;;;;;;;12.32;11.18;;;26.50;59.20;;;;;;5048400;27;114357;-78
2023/08/22 00:42:14;;;;;;;12.23;11.13;;;26.50;59.00;;;;;;5047020;27;115088;-78
2023/08/22 00:44:41;;;;;;;12.18;10.98;;;26.60;59.10;;;;;;5050783;27;116606;-79
2023/08/22 00:47:08;;;;;;;12.40;11.10;;;26.60;58.90;;;;;;5054086;27;114169;-78
2023/08/22 00:49:35;;;;;;;11.63;10.48;;;26.60;58.70;;;;;;5050374;27;114379;-78
2023/08/22 00:52:02;;;;;;;12.95;11.60;;;26.60;58.80;;;;;;5048986;27;114812;-78
2023/08/22 00:54:31;;;;;;;11.07;10.10;;;26.60;58.80;;;;;;5049921;27;114785;-78
2023/08/22 00:56:59;;;;;;;11.00;9.90;;;26.50;58.90;;;;;;5051750;27;114372;-78
2023/08/22 00:59:26;;;;;;;10.75;9.75;;;26.50;58.80;;;;;;5049892;27;114254;-79
2023/08/22 01:01:54;;;;;;;11.35;10.15;;;26.60;58.80;;;;;;5049941;27;114979;-78
2023/08/22 01:04:21;;;;;;;13.65;12.35;;;26.60;58.60;;;;;;5048559;27;114554;-78
2023/08/22 01:06:56;;;;;;;12.38;11.27;;;26.60;58.80;;;;;;5049527;27;114542;-78
2023/08/22 01:09:59;;;;;;;13.10;11.10;;;26.60;58.70;;;;;;5051864;27;114151;-78
2023/08/22 01:12:41;;;;;;;11.65;10.45;;;26.60;58.80;;;;;;5038434;27;114904;-78
2023/08/22 01:15:18;;;;;;;12.05;10.85;;;26.50;58.80;;;;;;5049806;27;114650;-78
2023/08/22 01:17:45;;;;;;;11.55;10.45;;;26.50;58.80;;;;;;5049412;27;114153;-78
2023/08/22 01:20:12;;;;;;;13.27;11.95;;;26.60;58.70;;;;;;5032323;27;114531;-78
2023/08/22 01:22:40;;;;;;;14.20;12.80;;;26.60;58.80;;;;;;5031521;27;115473;-78
2023/08/22 01:25:08;;;;;;;12.45;11.15;;;26.60;58.70;;;;;;5047701;27;115229;-78
2023/08/22 01:28:08;;;;;;;11.35;10.20;;;26.60;58.60;;;;;;5050392;27;114272;-78
2023/08/22 01:30:38;;;;;;;11.70;10.50;;;26.70;58.30;;;;;;5049034;27;114545;-78
2023/08/22 01:33:11;;;;;;;14.15;12.85;;;26.60;58.40;;;;;;5049134;27;114930;-77
2023/08/22 01:35:38;;;;;;;15.05;13.65;;;26.70;58.50;;;;;;5032294;27;115161;-77
2023/08/22 01:38:05;;;;;;;12.10;10.90;;;26.60;58.70;;;;;;5048906;27;114290;-78
2023/08/22 01:40:33;;;;;;;14.63;11.60;;;26.60;58.40;;;;;;5032568;27;114297;-78
2023/08/22 01:43:00;;;;;;;11.30;10.15;;;26.60;58.60;;;;;;5031149;27;117395;-78
2023/08/22 01:45:32;;;;;;;11.93;10.60;;;26.60;58.40;;;;;;5047358;27;116806;-78
2023/08/22 01:48:04;;;;;;;11.80;10.60;;;26.60;58.40;;;;;;5031995;27;114360;-77
2023/08/22 01:50:31;;;;;;;10.75;9.73;;;26.60;58.40;;;;;;5050364;27;114206;-77
2023/08/22 01:52:58;;;;;;;11.13;10.13;;;26.60;58.30;;;;;;5049526;27;114817;-77
2023/08/22 01:55:25;;;;;;;12.35;11.13;;;26.60;58.20;;;;;;5047494;27;114567;-78
2023/08/22 01:57:52;;;;;;;13.68;12.38;;;26.60;58.30;;;;;;5048599;27;114461;-78
2023/08/22 02:05:41;;;;;;;13.15;10.30;;;26.60;58.20;;;;;;5045682;27;114499;-78
2023/08/22 02:08:10;;;;;;;11.23;10.13;;;26.30;59.00;;;;;;5048876;27;114630;-78
2023/08/22 02:10:37;;;;;;;12.90;11.60;;;26.30;58.90;;;;;;5048234;27;114493;-77
2023/08/22 02:13:04;;;;;;;11.05;10.05;;;26.40;59.10;;;;;;5048224;27;114332;-77
2023/08/22 02:15:32;;;;;;;10.88;9.98;;;26.20;59.10;;;;;;5030771;27;115354;-78
2023/08/22 02:17:59;;;;;;;11.10;9.80;;;26.30;59.40;;;;;;5049393;27;115065;-78
2023/08/22 02:20:26;;;;;;;12.65;11.45;;;26.30;59.20;;;;;;5048005;27;114194;-77
2023/08/22 02:22:54;;;;;;;13.05;11.75;;;26.30;59.20;;;;;;5031727;27;114394;-78
2023/08/22 02:25:21;;;;;;;12.63;11.32;;;26.30;59.10;;;;;;5030225;27;115032;-78
2023/08/22 02:27:48;;;;;;;10.77;9.63;;;26.30;58.90;;;;;;5013456;27;117153;-78
2023/08/22 02:30:15;;;;;;;13.98;12.57;;;26.40;58.80;;;;;;5048545;27;114503;-79
2023/08/22 02:32:42;;;;;;;14.48;13.18;;;26.40;58.90;;;;;;5049391;27;114547;-78
2023/08/22 02:35:10;;;;;;;12.20;11.07;;;26.30;59.10;;;;;;5048156;27;115037;-79
2023/08/22 02:37:37;;;;;;;11.50;10.40;;;26.30;59.00;;;;;;5046008;27;114965;-79
2023/08/22 02:40:06;;;;;;;12.43;11.25;;;26.30;59.10;;;;;;5048950;27;114360;-79
2023/08/22 02:42:33;;;;;;;11.68;10.40;;;26.30;59.10;;;;;;5030867;27;114298;-78
2023/08/22 02:45:01;;;;;;;12.73;11.50;;;26.30;59.10;;;;;;5046660;27;114828;-78
2023/08/22 02:47:29;;;;;;;12.45;11.25;;;26.30;59.10;;;;;;5013454;27;116917;-78
2023/08/22 02:49:56;;;;;;;12.85;11.57;;;26.30;59.00;;;;;;5047375;27;114179;-77
2023/08/22 02:52:24;;;;;;;10.27;9.27;;;26.30;59.10;;;;;;5047687;27;114241;-78
2023/08/22 02:54:52;;;;;;;16.05;12.70;;;26.30;58.90;;;;;;5047012;27;114866;-79
2023/08/22 02:57:21;;;;;;;12.60;11.40;;;26.30;59.10;;;;;;5047049;27;114688;-78
2023/08/22 02:59:48;;;;;;;13.85;11.50;;;26.30;59.20;;;;;;5049040;27;114051;-78
2023/08/22 03:02:15;;;;;;;11.50;10.35;;;26.30;59.00;;;;;;5047492;27;114226;-78
2023/08/22 03:04:43;;;;;;;13.30;11.93;;;26.30;59.00;;;;;;5045928;27;116207;-78
2023/08/22 03:07:10;;;;;;;11.57;10.45;;;26.30;59.20;;;;;;5028716;27;115796;-78
2023/08/22 03:09:39;;;;;;;11.93;10.73;;;26.30;59.30;;;;;;5047629;27;114251;-78
2023/08/22 03:12:07;;;;;;;12.73;11.45;;;26.30;59.30;;;;;;5047472;27;114288;-78
2023/08/22 03:14:35;;;;;;;13.13;11.93;;;26.30;59.30;;;;;;5047683;27;115024;-78
2023/08/22 03:17:02;;;;;;;12.95;10.70;;;26.30;59.30;;;;;;5046121;27;114653;-79
2023/08/22 03:19:29;;;;;;;12.93;11.63;;;26.30;59.10;;;;;;5047210;27;114492;-79
2023/08/22 03:22:01;;;;;;;12.43;11.23;;;26.30;59.10;;;;;;5047440;27;114275;-78
2023/08/22 03:24:30;;;;;;;12.20;11.05;;;26.30;59.20;;;;;;5048299;27;115883;-78
2023/08/22 03:26:58;;;;;;;14.25;12.75;;;26.30;59.20;;;;;;5033210;27;114664;-79
2023/08/22 03:29:25;;;;;;;12.57;11.23;;;26.30;59.10;;;;;;5048774;27;114203;-79
2023/08/22 03:31:52;;;;;;;21.38;17.80;;;26.30;59.10;;;;;;5048327;27;114241;-79
2023/08/22 03:34:19;;;;;;;13.07;11.73;;;26.30;59.30;;;;;;5046112;27;114926;-78
2023/08/22 03:36:47;;;;;;;12.88;11.57;;;26.30;59.10;;;;;;5046098;27;116509;-79
2023/08/22 03:39:14;;;;;;;11.35;10.15;;;26.30;59.00;;;;;;5050515;27;114180;-79
2023/08/22 03:41:41;;;;;;;14.48;12.98;;;26.30;58.90;;;;;;5031787;27;114265;-79
2023/08/22 03:44:08;;;;;;;22.40;18.45;;;26.30;59.10;;;;;;5046012;27;114905;-79
2023/08/22 03:46:35;;;;;;;11.77;10.68;;;26.30;59.60;;;;;;5045757;27;114847;-79
2023/08/22 03:49:11;;;;;;;17.20;15.50;;;26.20;59.10;;;;;;5047590;27;114479;-78
2023/08/22 03:51:38;;;;;;;13.80;12.18;;;26.10;59.80;;;;;;5048922;27;114268;-78
2023/08/22 03:54:05;;;;;;;14.20;12.73;;;26.10;59.60;;;;;;5045790;27;114925;-79
2023/08/22 03:56:32;;;;;;;12.88;11.50;;;26.10;59.50;;;;;;5045884;27;115131;-79
2023/08/22 03:59:00;;;;;;;12.85;11.50;;;26.10;59.50;;;;;;5046852;27;114361;-78
2023/08/22 04:01:27;;;;;;;12.43;11.23;;;26.20;59.40;;;;;;5047925;27;114301;-79
2023/08/22 04:03:54;;;;;;;14.00;11.93;;;26.20;59.20;;;;;;5045609;27;115202;-79
2023/08/22 04:06:21;;;;;;;14.73;13.23;;;26.30;59.20;;;;;;5045888;27;114529;-78
2023/08/22 04:08:49;;;;;;;23.55;16.38;;;26.30;59.30;;;;;;5047771;27;114464;-79
2023/08/22 04:11:16;;;;;;;14.02;12.27;;;26.30;59.60;;;;;;5046367;27;114160;-78
2023/08/22 04:13:43;;;;;;;14.77;13.27;;;26.10;59.70;;;;;;5045613;27;114843;-78
2023/08/22 04:16:11;;;;;;;14.65;13.10;;;26.00;59.80;;;;;;5045538;27;115291;-79
2023/08/22 04:18:38;;;;;;;11.30;10.13;;;26.00;59.90;;;;;;5047099;27;114302;-79
2023/08/22 04:21:05;;;;;;;12.25;10.80;;;26.10;59.60;;;;;;5049872;27;114615;-79
2023/08/22 04:23:32;;;;;;;12.15;10.85;;;26.10;59.40;;;;;;5048985;27;114825;-79
2023/08/22 04:25:59;;;;;;;12.73;11.43;;;26.20;59.30;;;;;;5050011;27;114461;-79
2023/08/22 04:28:27;;;;;;;14.57;13.18;;;26.20;59.20;;;;;;5033449;27;114367;-79
2023/08/22 04:30:58;;;;;;;12.60;10.73;;;26.30;59.30;;;;;;5051814;27;114160;-79
2023/08/22 04:33:26;;;;;;;15.85;13.90;;;26.30;58.80;;;;;;5048928;27;115029;-79
2023/08/22 04:35:54;;;;;;;13.98;11.80;;;26.40;59.20;;;;;;5048648;27;114875;-79
2023/08/22 04:38:22;;;;;;;13.13;11.73;;;26.30;58.90;;;;;;5032946;27;114187;-79
2023/08/22 04:40:50;;;;;;;12.50;11.25;;;26.30;58.80;;;;;;5032874;27;114596;-80
2023/08/22 04:43:30;;;;;;;12.65;11.45;;;26.40;58.70;;;;;;5049819;27;115577;-79
2023/08/22 04:46:00;;;;;;;14.38;12.60;;;26.40;58.70;;;;;;5048777;27;114719;-79
2023/08/22 04:48:27;;;;;;;11.98;10.77;;;26.40;58.80;;;;;;5032504;27;114209;-79
2023/08/22 04:50:54;;;;;;;12.75;11.45;;;26.40;58.70;;;;;;5049573;27;114573;-79
2023/08/22 04:53:22;;;;;;;14.75;13.35;;;26.40;58.70;;;;;;5031693;27;114859;-79
2023/08/22 04:55:50;;;;;;;13.98;12.68;;;26.40;59.00;;;;;;5014791;27;118818;-80
2023/08/22 04:58:17;;;;;;;14.88;13.38;;;26.40;58.80;;;;;;5051001;27;114342;-79
2023/08/22 05:00:44;;;;;;;12.77;11.48;;;26.40;58.70;;;;;;5049602;27;114070;-80
2023/08/22 05:03:11;;;;;;;14.65;12.13;;;26.50;58.50;;;;;;5048307;27;115612;-80
2023/08/22 05:05:38;;;;;;;13.13;11.48;;;26.40;58.70;;;;;;5048184;27;114638;-79
2023/08/22 05:08:05;;;;;;;12.80;11.55;;;26.40;58.60;;;;;;5032485;27;114761;-79
2023/08/22 05:10:35;;;;;;;14.27;12.15;;;26.40;58.50;;;;;;5051214;27;114254;-79
2023/08/22 05:13:03;;;;;;;15.05;13.40;;;26.50;58.40;;;;;;5048158;27;114903;-77
2023/08/22 05:15:30;;;;;;;15.43;12.75;;;26.50;58.70;;;;;;5048133;27;115109;-78
2023/08/22 05:17:58;;;;;;;16.52;14.80;;;26.50;58.40;;;;;;5049044;27;114066;-77
2023/08/22 05:20:25;;;;;;;14.60;13.20;;;26.60;58.50;;;;;;5048622;27;114817;-78
2023/08/22 05:22:53;;;;;;;15.68;14.18;;;26.50;58.60;;;;;;5047880;27;115602;-78
2023/08/22 05:25:20;;;;;;;13.90;12.60;;;26.50;58.30;;;;;;5033496;27;117775;-79
2023/08/22 05:27:47;;;;;;;12.45;11.25;;;26.60;58.30;;;;;;5031947;27;114649;-78
2023/08/22 05:30:16;;;;;;;16.15;14.50;;;26.50;58.20;;;;;;5031900;27;114294;-79
2023/08/22 05:32:44;;;;;;;14.90;13.40;;;26.60;58.60;;;;;;5013998;27;115616;-78
2023/08/22 05:35:11;;;;;;;17.98;16.17;;;26.70;58.50;;;;;;5047827;27;114908;-79
2023/08/22 05:37:39;;;;;;;14.52;12.95;;;26.70;58.70;;;;;;5048389;27;114426;-78
2023/08/22 05:40:08;;;;;;;15.10;13.60;;;26.70;58.30;;;;;;5031448;27;114408;-79
2023/08/22 05:42:36;;;;;;;12.40;10.57;;;26.60;58.40;;;;;;5031037;27;115192;-78
2023/08/22 05:45:05;;;;;;;14.02;12.65;;;26.70;58.00;;;;;;5030930;27;114819;-78
2023/08/22 05:47:32;;;;;;;17.95;16.05;;;26.80;57.90;;;;;;5048264;27;114391;-79
2023/08/22 05:49:59;;;;;;;17.83;15.93;;;26.90;58.90;;;;;;5048777;27;114483;-78
2023/08/22 05:52:28;;;;;;;19.55;17.63;;;26.90;58.70;;;;;;5048607;27;115448;-79
2023/08/22 05:54:55;;;;;;;19.08;17.27;;;26.90;58.80;;;;;;5030546;27;115129;-78
2023/08/22 05:57:22;;;;;;;18.65;16.75;;;27.00;58.60;;;;;;5048489;27;114405;-78
2023/08/22 05:59:51;;;;;;;20.52;16.17;;;27.10;58.60;;;;;;5031063;27;114343;-79
2023/08/22 06:02:18;;;;;;;16.10;14.43;;;27.20;58.30;;;;;;5046994;27;115017;-79
2023/08/22 06:04:46;;;;;;;15.73;12.90;;;27.20;57.80;;;;;;5029559;27;115376;-79
2023/08/22 06:07:13;;;;;;;16.50;14.77;;;27.10;57.50;;;;;;5047695;27;114400;-78
2023/08/22 06:09:40;;;;;;;21.15;17.77;;;27.10;57.70;;;;;;5014678;27;114259;-78
2023/08/22 06:12:08;;;;;;;23.45;17.38;;;27.20;58.00;;;;;;5030588;27;115545;-78
2023/08/22 06:14:36;;;;;;;18.45;16.55;;;27.10;58.20;;;;;;5031910;27;115295;-77
2023/08/22 06:17:03;;;;;;;21.77;17.40;;;27.10;58.20;;;;;;5059325;27;114452;-79
2023/08/22 06:19:31;;;;;;;22.25;17.27;;;27.20;58.60;;;;;;5055262;27;114123;-78
2023/08/22 06:21:58;;;;;;;21.70;17.10;;;27.20;58.40;;;;;;5047191;27;115014;-78
2023/08/22 06:24:25;;;;;;;20.65;17.85;;;27.30;58.50;;;;;;5048650;27;115078;-79
2023/08/22 06:26:52;;;;;;;13.88;11.07;;;27.40;58.80;;;;;;5050343;27;114240;-78
2023/08/22 06:29:19;;;;;;;21.00;16.45;;;27.50;57.10;;;;;;5037364;27;114239;-77
2023/08/22 06:31:46;;;;;;;19.33;17.13;;;27.70;57.70;;;;;;5052237;27;114929;-79
2023/08/22 06:34:14;;;;;;;17.83;16.05;;;27.80;57.50;;;;;;5046505;27;114874;-78
2023/08/22 06:36:41;;;;;;;19.42;17.27;;;27.80;57.40;;;;;;5047170;27;114421;-79
2023/08/22 06:39:08;;;;;;;20.60;18.42;;;28.00;57.90;;;;;;5047517;27;114723;-80
2023/08/22 06:41:35;;;;;;;20.55;18.40;;;28.10;57.20;;;;;;5045847;27;114925;-79
2023/08/22 06:44:09;;;;;;;19.95;18.05;;;28.20;56.70;;;;;;5030379;27;116972;-80
2023/08/22 06:46:36;;;;;;;19.88;17.85;;;28.30;57.10;;;;;;5047434;27;114105;-77
2023/08/22 06:49:03;;;;;;;18.27;16.48;;;28.30;56.80;;;;;;5048551;27;114204;-79
2023/08/22 06:51:31;;;;;;;19.17;17.13;;;28.30;56.80;;;;;;5046427;27;115439;-79
2023/08/22 06:53:59;;;;;;;19.83;17.88;;;28.40;56.90;;;;;;5047693;27;114645;-79
2023/08/22 06:56:26;;;;;;;20.02;17.98;;;28.40;56.80;;;;;;5047120;27;114288;-79
2023/08/22 06:58:53;;;;;;;23.17;20.02;;;28.50;56.60;;;;;;5048815;27;114087;-79
2023/08/22 07:01:20;;;;;;;21.25;19.02;;;28.50;56.40;;;;;;5051006;27;115092;-78
2023/08/22 07:03:48;;;;;;;21.83;19.52;;;28.50;56.50;;;;;;5048521;27;114270;-79
2023/08/22 07:06:32;;;;;;;21.27;19.15;;;28.60;56.70;;;;;;5048445;27;114319;-79
2023/08/22 07:08:59;;;;;;;22.48;20.13;;;28.60;57.30;;;;;;5047066;27;114356;-79
2023/08/22 07:11:26;;;;;;;23.10;20.63;;;28.60;57.00;;;;;;5012378;27;116061;-79
2023/08/22 07:13:53;;;;;;;21.50;19.23;;;28.70;57.10;;;;;;5045833;27;115827;-79
2023/08/22 07:16:20;;;;;;;19.98;17.90;;;28.70;56.70;;;;;;5046994;27;114307;-79
2023/08/22 07:18:47;;;;;;;20.33;18.25;;;28.70;56.50;;;;;;5048454;27;114361;-79
2023/08/22 07:21:14;;;;;;;19.80;17.73;;;28.80;56.60;;;;;;5045396;27;117008;-79
2023/08/22 07:23:41;;;;;;;22.77;17.83;;;28.80;56.60;;;;;;5045679;27;115954;-79
2023/08/22 07:26:08;;;;;;;21.45;18.40;;;28.80;56.20;;;;;;5047521;27;114394;-79
2023/08/22 07:28:35;;;;;;;23.20;20.38;;;28.80;56.10;;;;;;5048878;27;114372;-79
2023/08/22 07:31:03;;;;;;;21.80;19.48;;;28.90;56.10;;;;;;5046988;27;115443;-80
2023/08/22 07:33:31;;;;;;;20.05;18.05;;;28.90;56.60;;;;;;5029086;27;114564;-79
2023/08/22 07:35:59;;;;;;;20.42;18.13;;;28.90;56.40;;;;;;5047739;27;114689;-79
2023/08/22 07:38:26;;;;;;;23.00;18.98;;;28.90;55.10;;;;;;5046459;27;114277;-79
2023/08/22 07:40:53;;;;;;;18.40;16.63;;;28.90;54.80;;;;;;5046896;27;115010;-80
2023/08/22 07:43:20;;;;;;;20.00;17.95;;;28.90;54.40;;;;;;5045287;27;115056;-79
2023/08/22 07:45:47;;;;;;;19.08;17.23;;;29.00;55.40;;;;;;5029015;27;114409;-80
2023/08/22 07:48:15;;;;;;;20.27;18.30;;;29.10;54.60;;;;;;5047892;27;114171;-79
2023/08/22 07:50:42;;;;;;;19.88;17.80;;;29.20;54.50;;;;;;5045710;27;114851;-79
2023/08/22 07:53:09;;;;;;;20.17;18.17;;;29.30;54.50;;;;;;5046113;27;116163;-80
2023/08/22 07:55:36;;;;;;;18.15;16.30;;;29.40;55.30;;;;;;5051420;27;114506;-79
2023/08/22 07:58:03;;;;;;;21.40;19.40;;;29.40;54.20;;;;;;5033034;27;114463;-80
2023/08/22 08:00:30;;;;;;;21.85;19.70;;;29.40;54.90;;;;;;5048811;27;117645;-79
2023/08/22 08:02:58;;;;;;;23.02;20.83;;;29.40;55.50;;;;;;5050281;27;114696;-80
2023/08/22 08:05:26;;;;;;;23.45;19.60;;;29.40;55.60;;;;;;5051518;27;114288;-80
2023/08/22 08:07:53;;;;;;;19.88;17.92;;;29.50;55.90;;;;;;5051353;27;114363;-80
2023/08/22 08:10:20;;;;;;;19.27;17.42;;;29.50;53.90;;;;;;5049862;27;116151;-80
2023/08/22 08:12:47;;;;;;;19.55;17.58;;;29.40;54.20;;;;;;5050186;27;115124;-80
2023/08/22 08:15:14;;;;;;;19.25;17.38;;;29.50;53.80;;;;;;5051184;27;114381;-78
2023/08/22 08:17:41;;;;;;;20.48;18.33;;;29.40;53.90;;;;;;5050097;27;114332;-79
2023/08/22 08:20:10;;;;;;;20.35;18.35;;;29.40;53.90;;;;;;5049065;27;115109;-79
2023/08/22 08:22:38;;;;;;;18.05;16.25;;;29.40;53.80;;;;;;5050157;27;114574;-79
2023/08/22 08:25:05;;;;;;;20.08;17.98;;;29.40;53.60;;;;;;5050730;27;114113;-79
2023/08/22 08:27:32;;;;;;;18.52;16.50;;;29.40;54.60;;;;;;5051229;27;114097;-79
2023/08/22 08:29:59;;;;;;;19.95;16.98;;;29.40;54.00;;;;;;5049619;27;114944;-79
2023/08/22 08:32:26;;;;;;;19.42;17.13;;;29.40;54.00;;;;;;5049981;27;114641;-79
2023/08/22 08:34:53;;;;;;;18.80;16.90;;;29.50;53.30;;;;;;5049495;27;114242;-79
2023/08/22 08:37:20;;;;;;;22.85;20.73;;;29.60;53.80;;;;;;5049331;27;114290;-79
2023/08/22 08:39:48;;;;;;;20.98;18.85;;;29.60;54.30;;;;;;5035379;27;115038;-79
2023/08/22 08:42:15;;;;;;;22.15;19.98;;;29.60;54.30;;;;;;5029481;27;114895;-79
2023/08/22 08:44:42;;;;;;;19.30;17.38;;;29.70;54.20;;;;;;5028707;28;114050;-79
2023/08/22 08:47:10;;;;;;;22.45;20.20;;;29.80;53.30;;;;;;5029177;28;114513;-79
2023/08/22 08:49:37;;;;;;;21.70;19.70;;;29.80;53.40;;;;;;5028150;28;115452;-80
2023/08/22 08:52:05;;;;;;;20.83;18.75;;;29.80;54.10;;;;;;5029077;28;114578;-79
2023/08/22 08:54:33;;;;;;;23.67;21.40;;;29.80;54.00;;;;;;5028975;28;114446;-80
2023/08/22 08:57:00;;;;;;;21.02;18.92;;;29.70;53.50;;;;;;5029117;28;114345;-80
2023/08/22 08:59:29;;;;;;;20.17;18.38;;;29.60;53.60;;;;;;5027755;28;116151;-79
2023/08/22 09:01:59;;;;;;;19.75;17.98;;;29.60;53.40;;;;;;5028839;28;115768;-80
2023/08/22 09:04:27;;;;;;;18.55;16.75;;;29.70;53.50;;;;;;5011847;28;114286;-81
2023/08/22 09:06:54;;;;;;;20.30;18.40;;;29.80;53.10;;;;;;5029914;28;114359;-80
2023/08/22 09:09:24;;;;;;;19.50;17.48;;;29.90;53.10;;;;;;5027912;28;116439;-79
2023/08/22 09:11:51;;;;;;;19.52;17.52;;;29.90;53.00;;;;;;5029012;28;114715;-80
2023/08/22 09:14:22;;;;;;;19.85;17.85;;;29.90;52.50;;;;;;5030159;28;114277;-79
2023/08/22 09:16:49;;;;;;;19.30;17.45;;;29.80;52.80;;;;;;5012803;28;114238;-79
2023/08/22 09:19:16;;;;;;;19.90;17.90;;;29.80;53.50;;;;;;5027520;28;114969;-79
2023/08/22 09:22:00;;;;;;;18.52;16.80;;;29.90;52.80;;;;;;5028956;28;114800;-79
2023/08/22 09:24:27;;;;;;;18.80;16.88;;;30.00;52.40;;;;;;5029967;28;115907;-79
2023/08/22 09:26:54;;;;;;;18.92;17.05;;;29.90;52.50;;;;;;5028943;28;114122;-80
2023/08/22 09:29:31;;;;;;;19.85;18.05;;;29.90;52.90;;;;;;5028813;28;115128;-79
2023/08/22 09:32:02;;;;;;;18.13;16.38;;;29.90;51.90;;;;;;5010854;28;114805;-79
2023/08/22 09:34:29;;;;;;;17.17;15.48;;;29.90;51.70;;;;;;5028007;28;114347;-80
2023/08/22 09:36:57;;;;;;;16.83;15.27;;;29.80;51.00;;;;;;5011492;28;114337;-80
2023/08/22 09:39:24;;;;;;;16.98;15.38;;;29.80;51.00;;;;;;5010854;28;114871;-79
2023/08/22 09:41:53;;;;;;;16.00;14.40;;;29.90;50.70;;;;;;5028279;28;114721;-78
2023/08/22 09:44:27;;;;;;;15.90;14.30;;;29.90;49.60;;;;;;5011495;28;114424;-79
2023/08/22 09:46:55;;;;;;;16.00;14.40;;;29.90;49.90;;;;;;5030416;27;114047;-80
2023/08/22 09:49:23;;;;;;;15.60;13.63;;;29.90;50.70;;;;;;5026412;28;115143;-80
2023/08/22 09:51:53;;;;;;;16.27;14.68;;;29.80;49.40;;;;;;5027368;28;114612;-80
2023/08/22 09:54:21;;;;;;;16.05;14.52;;;29.80;51.00;;;;;;5028271;28;114220;-79
2023/08/22 09:56:48;;;;;;;15.18;13.68;;;29.80;50.40;;;;;;5011297;28;114363;-78
2023/08/22 09:59:17;;;;;;;15.45;13.95;;;29.80;50.20;;;;;;5027749;28;114914;-79
2023/08/22 10:01:44;;;;;;;15.05;13.52;;;29.70;50.10;;;;;;5027060;28;114925;-79
2023/08/22 10:04:13;;;;;;;15.30;13.90;;;29.70;50.20;;;;;;5028223;28;114197;-80
2023/08/22 10:06:40;;;;;;;15.15;13.75;;;29.70;50.40;;;;;;5029443;27;114182;-79
2023/08/22 10:09:13;;;;;;;;;;;29.70;50.20;;;;;;5028651;28;114956;-81
2023/08/22 10:11:48;;;;;;;14.73;13.30;;;29.70;51.00;;;;;;5027305;28;117693;-78
2023/08/22 10:14:23;;;;;;;14.90;13.43;;;29.80;50.60;;;;;;5028256;28;114538;-78
2023/08/22 10:16:50;;;;;;;15.32;13.82;;;29.80;50.60;;;;;;5009976;28;114468;-80
2023/08/22 10:19:22;;;;;;;15.48;13.07;;;29.70;50.50;;;;;;5009025;28;116107;-79
2023/08/22 10:21:49;;;;;;;14.65;13.15;;;29.80;50.50;;;;;;5027925;28;114557;-79
2023/08/22 10:24:32;;;;;;;13.93;12.40;;;29.80;49.80;;;;;;5028769;28;114124;-80
2023/08/22 10:27:06;;;;;;;14.25;12.85;;;29.80;49.40;;;;;;5027296;28;114659;-79
2023/08/22 10:29:36;;;;;;;12.50;11.30;;;29.90;49.30;;;;;;5027750;28;115134;-79
2023/08/22 10:32:03;;;;;;;13.43;12.02;;;30.00;47.70;;;;;;5026575;28;115232;-81
2023/08/22 10:34:40;;;;;;;14.38;12.93;;;30.00;48.00;;;;;;5028692;27;114164;-79
2023/08/22 10:37:17;;;;;;;13.23;12.02;;;30.00;48.90;;;;;;5028634;28;114321;-78
2023/08/22 10:39:45;;;;;;;12.82;11.63;;;29.90;48.70;;;;;;5026147;28;115043;-79
2023/08/22 10:42:20;;;;;;;10.60;9.50;;;29.90;48.10;;;;;;5025947;28;115144;-79
2023/08/22 10:44:55;;;;;;;10.90;9.77;;;29.90;45.20;;;;;;5028633;28;114150;-80
2023/08/22 10:47:30;;;;;;;13.00;11.80;;;30.00;46.00;;;;;;5027864;28;114348;-79
2023/08/22 10:49:59;;;;;;;12.05;10.80;;;30.10;47.00;;;;;;5026481;28;115015;-78
2023/08/22 10:52:42;;;;;;;12.40;11.20;;;30.10;46.70;;;;;;5026236;28;114665;-79
2023/08/22 10:55:09;;;;;;;12.60;10.60;;;30.20;46.50;;;;;;5028221;28;114398;-80
2023/08/22 10:57:46;;;;;;;9.60;8.70;;;30.30;45.90;;;;;;5028767;28;114018;-80
2023/08/22 11:00:23;;;;;;;12.32;11.13;;;30.40;45.10;;;;;;5026451;28;114886;-80
2023/08/22 11:02:58;;;;;;;11.55;10.45;;;30.40;45.40;;;;;;5027242;28;114574;-79
2023/08/22 11:05:26;;;;;;;12.88;11.15;;;30.50;45.10;;;;;;5026800;28;114110;-79
2023/08/22 11:07:54;;;;;;;13.57;10.60;;;30.50;45.70;;;;;;5026850;28;114321;-80
2023/08/22 11:10:22;;;;;;;12.73;11.43;;;30.60;44.70;;;;;;5027166;28;116106;-79
2023/08/22 11:12:50;;;;;;;14.07;11.32;;;30.60;45.60;;;;;;5026320;28;114741;-79
2023/08/22 11:15:17;;;;;;;13.48;11.63;;;30.60;45.80;;;;;;5026898;28;114184;-78
2023/08/22 11:17:49;;;;;;;12.13;10.93;;;30.60;45.90;;;;;;5027008;28;114549;-79
2023/08/22 11:20:18;;;;;;;11.93;10.55;;;30.60;45.00;;;;;;5027196;28;114904;-78
2023/08/22 11:22:46;;;;;;;12.05;10.63;;;30.60;44.60;;;;;;5026235;28;114310;-79
2023/08/22 11:25:22;;;;;;;10.88;9.55;;;30.50;44.50;;;;;;5027853;27;114299;-80
2023/08/22 11:27:49;;;;;;;11.18;10.02;;;30.50;44.60;;;;;;5010095;28;114226;-80
2023/08/22 11:30:18;;;;;;;10.95;9.77;;;30.50;44.60;;;;;;5026575;28;117073;-79
2023/08/22 11:32:45;;;;;;;12.93;10.82;;;30.50;44.50;;;;;;5025134;28;115208;-78
2023/08/22 11:35:13;;;;;;;12.07;10.60;;;30.40;44.60;;;;;;5027887;28;114228;-79
2023/08/22 11:37:41;;;;;;;12.57;11.20;;;30.40;45.60;;;;;;5027203;28;114365;-80
2023/08/22 11:40:15;;;;;;;11.00;10.00;;;30.40;45.30;;;;;;5026260;27;115030;-80
2023/08/22 11:42:47;;;;;;;13.25;11.98;;;30.30;45.10;;;;;;5026860;28;114581;-78
2023/08/22 11:45:21;;;;;;;12.73;11.43;;;30.40;46.40;;;;;;5026198;28;114267;-80
2023/08/22 11:47:53;;;;;;;13.60;12.23;;;30.40;46.50;;;;;;5028121;28;114243;-80
2023/08/22 11:50:20;;;;;;;15.10;11.65;;;30.40;46.90;;;;;;5026735;28;114876;-81
2023/08/22 11:53:12;;;;;;;12.32;11.07;;;30.30;46.60;;;;;;5026435;28;115268;-80
2023/08/22 11:55:41;;;;;;;13.40;12.02;;;30.40;46.60;;;;;;5026228;28;114316;-79
2023/08/22 11:58:15;;;;;;;13.80;12.50;;;30.30;46.40;;;;;;5027722;28;114396;-79
2023/08/22 12:00:42;;;;;;;12.88;11.68;;;30.30;47.20;;;;;;5026467;27;114892;-80
2023/08/22 12:03:12;;;;;;;13.02;11.65;;;30.40;47.20;;;;;;5026470;28;114644;-80
2023/08/22 12:05:48;;;;;;;13.25;11.98;;;30.40;46.70;;;;;;5027456;28;114116;-80
2023/08/22 12:08:19;;;;;;;13.15;11.18;;;30.40;46.60;;;;;;5027620;28;114103;-80
2023/08/22 12:10:50;;;;;;;13.15;11.50;;;30.30;46.10;;;;;;5026477;28;114902;-80
2023/08/22 12:13:21;;;;;;;12.63;11.18;;;30.30;46.50;;;;;;5025264;28;114816;-78
2023/08/22 12:15:49;;;;;;;12.82;11.63;;;30.40;46.60;;;;;;5009546;28;114323;-80
2023/08/22 12:18:17;;;;;;;12.80;11.02;;;30.40;46.40;;;;;;5026151;28;114128;-80
2023/08/22 12:20:45;;;;;;;12.75;10.32;;;30.50;45.50;;;;;;5025738;28;116623;-80
2023/08/22 12:23:12;;;;;;;12.65;11.10;;;30.50;45.30;;;;;;5025000;28;115218;-79
2023/08/22 12:25:41;;;;;;;12.13;10.93;;;30.50;45.70;;;;;;5024995;28;114444;-80
2023/08/22 12:28:11;;;;;;;12.48;11.38;;;30.40;45.60;;;;;;5010002;28;114484;-79
2023/08/22 12:30:38;;;;;;;11.52;10.38;;;30.40;45.80;;;;;;5026276;28;114923;-80